createdAt,value
2023-06-09T00:01:46.126Z,8.64
2023-06-09T00:07:08.797Z,8.71
2023-06-09T00:12:31.428Z,8.82
2023-06-09T00:17:55.279Z,8.59
2023-06-09T00:23:17.703Z,8.78
2023-06-09T00:28:39.932Z,8.77
2023-06-09T00:34:02.081Z,8.93
2023-06-09T00:39:24.941Z,8.79
2023-06-09T00:44:47.069Z,8.84
2023-06-09T00:50:10.253Z,8.57
2023-06-09T00:55:33.626Z,8.91
2023-06-09T01:00:55.907Z,8.76
2023-06-09T01:06:32.344Z,8.91
2023-06-09T01:12:00.315Z,9.02
2023-06-09T01:17:25.590Z,9.01
2023-06-09T01:23:20.017Z,9.06
2023-06-09T01:28:46.690Z,9.25
2023-06-09T01:34:08.938Z,9.21
2023-06-09T01:39:31.132Z,9.33
2023-06-09T01:44:53.547Z,9.35
2023-06-09T01:50:25.833Z,9.49
2023-06-09T01:55:54.405Z,9.48
2023-06-09T02:01:19.039Z,9.71
2023-06-09T02:06:43.138Z,10.01
2023-06-09T02:12:06.724Z,10.28
2023-06-09T02:17:30.151Z,10.23
2023-06-09T02:23:12.627Z,10.49
2023-06-09T02:28:35.385Z,10.70
2023-06-09T02:33:57.742Z,10.70
2023-06-09T02:39:24.085Z,10.81
2023-06-09T02:44:50.286Z,11.00
2023-06-09T02:50:13.266Z,11.34
2023-06-09T02:55:36.732Z,11.47
2023-06-09T03:00:59.223Z,11.71
2023-06-09T03:06:21.791Z,11.88
2023-06-09T03:11:44.052Z,11.88
2023-06-09T03:17:06.515Z,12.31
2023-06-09T03:22:30.468Z,12.37
2023-06-09T03:27:54.940Z,12.51
2023-06-09T03:33:20.225Z,12.76
2023-06-09T03:38:43.326Z,13.00
2023-06-09T03:44:05.790Z,13.43
2023-06-09T03:49:28.052Z,13.70
2023-06-09T03:54:50.253Z,13.80
2023-06-09T04:00:13.751Z,13.93
2023-06-09T04:05:38.691Z,14.38
2023-06-09T04:11:01.209Z,14.43
2023-06-09T04:16:24.280Z,15.01
2023-06-09T04:21:48.478Z,15.52
2023-06-09T04:27:11.239Z,15.62
2023-06-09T04:32:35.673Z,16.34
2023-06-09T04:38:03.802Z,16.60
2023-06-09T04:43:29.024Z,17.02
2023-06-09T04:48:53.248Z,17.86
2023-06-09T04:54:16.363Z,17.64
2023-06-09T04:59:42.663Z,17.91
2023-06-09T05:05:06.365Z,18.49
2023-06-09T05:10:28.746Z,18.27
2023-06-09T05:15:52.175Z,18.86
2023-06-09T05:21:15.718Z,20.22
2023-06-09T05:26:38.320Z,19.61
2023-06-09T05:32:01.984Z,20.58
2023-06-09T05:37:24.153Z,20.54
2023-06-09T05:42:46.758Z,21.28
2023-06-09T05:48:08.877Z,20.75
2023-06-09T05:53:31.039Z,21.29
2023-06-09T05:58:53.779Z,21.64
2023-06-09T06:04:16.775Z,22.71
2023-06-09T06:09:38.955Z,21.89
2023-06-09T06:15:01.560Z,22.90
2023-06-09T06:20:26.598Z,22.99
2023-06-09T06:25:52.408Z,23.09
2023-06-09T06:31:15.140Z,23.02
2023-06-09T06:36:37.191Z,22.83
2023-06-09T06:42:02.648Z,22.74
2023-06-09T06:47:32.028Z,22.52
2023-06-09T06:52:54.363Z,21.87
2023-06-09T06:58:16.756Z,21.24
2023-06-09T07:03:41.721Z,22.63
2023-06-09T07:09:06.139Z,22.21
2023-06-09T07:14:30.405Z,22.23
2023-06-09T07:19:52.316Z,21.79
2023-06-09T07:25:14.357Z,22.29
2023-06-09T07:30:36.305Z,22.28
2023-06-09T07:35:58.817Z,23.03
2023-06-09T07:41:22.496Z,22.74
2023-06-09T07:46:44.547Z,22.80
2023-06-09T07:52:20.446Z,22.28
2023-06-09T07:57:47.106Z,22.13
2023-06-09T08:03:09.617Z,22.64
2023-06-09T08:08:33.111Z,22.07
2023-06-09T08:13:55.397Z,22.30
2023-06-09T08:19:17.274Z,22.82
2023-06-09T08:24:39.243Z,21.65
2023-06-09T08:30:01.300Z,21.32
2023-06-09T08:35:27.326Z,22.62
2023-06-09T08:40:51.150Z,22.64
2023-06-09T08:46:13.626Z,22.57
2023-06-09T08:51:35.471Z,22.63
2023-06-09T08:56:57.980Z,21.58
2023-06-09T09:02:20.836Z,22.15
2023-06-09T09:07:43.810Z,23.37
2023-06-09T09:13:10.342Z,22.89
2023-06-09T09:18:35.920Z,22.84
2023-06-09T09:24:03.082Z,22.83
2023-06-09T09:29:29.829Z,22.87
2023-06-09T09:34:51.909Z,23.10
2023-06-09T09:40:17.248Z,23.39
2023-06-09T09:45:45.305Z,22.92
2023-06-09T09:56:53.077Z,22.85
2023-06-09T10:02:23.172Z,23.03
2023-06-09T10:07:50.331Z,22.83
2023-06-09T10:13:13.897Z,22.02
2023-06-09T10:18:38.367Z,23.11
2023-06-09T10:24:03.113Z,23.56
2023-06-09T10:29:26.918Z,22.53
2023-06-09T10:34:51.535Z,23.22
2023-06-09T10:40:32.084Z,23.00
2023-06-09T10:45:59.122Z,22.10
2023-06-09T10:51:30.683Z,22.88
2023-06-09T10:56:55.671Z,21.91
2023-06-09T11:02:19.872Z,22.83
2023-06-09T11:07:48.051Z,23.09
2023-06-09T11:13:39.034Z,22.79
2023-06-09T11:19:25.536Z,21.49
2023-06-09T11:24:53.638Z,20.27
2023-06-09T11:30:22.655Z,20.36
2023-06-09T11:53:10.305Z,19.67
2023-06-09T11:58:33.664Z,19.08
2023-06-09T12:03:56.107Z,18.99
2023-06-09T12:09:25.143Z,18.77
2023-06-09T12:14:47.773Z,17.64
2023-06-09T12:20:36.795Z,17.58
2023-06-09T12:26:09.658Z,18.77
2023-06-09T12:31:33.360Z,19.00
2023-06-09T12:36:58.806Z,19.38
2023-06-09T12:42:21.213Z,20.22
2023-06-09T12:47:51.349Z,19.30
2023-06-09T12:53:15.210Z,19.47
2023-06-09T12:58:37.471Z,18.79
2023-06-09T13:04:00.399Z,18.65
2023-06-09T13:09:22.212Z,18.52
2023-06-09T13:14:44.323Z,18.23
2023-06-09T13:20:08.073Z,18.37
2023-06-09T13:25:30.853Z,17.95
2023-06-09T13:30:53.212Z,17.76
2023-06-09T13:36:15.989Z,17.59
2023-06-09T13:41:38.173Z,17.34
2023-06-09T13:47:01.897Z,16.90
2023-06-09T13:52:24.826Z,16.77
2023-06-09T13:57:47.262Z,16.32
2023-06-09T14:03:09.748Z,16.23
2023-06-09T14:08:34.519Z,16.56
2023-06-09T14:13:56.713Z,16.73
2023-06-09T14:19:18.809Z,16.05
2023-06-09T14:24:40.890Z,15.95
2023-06-09T14:30:03.219Z,16.19
2023-06-09T14:35:27.832Z,17.33
2023-06-09T14:40:49.852Z,17.15
2023-06-09T14:46:11.997Z,16.83
2023-06-09T14:51:34.116Z,17.15
2023-06-09T14:56:56.141Z,17.16
2023-06-09T15:02:18.049Z,17.09
2023-06-09T15:08:23.881Z,16.95
2023-06-09T15:13:46.482Z,17.11
2023-06-09T15:19:08.999Z,17.95
2023-06-09T15:24:31.469Z,17.08
2023-06-09T15:29:56.670Z,19.02
2023-06-09T15:35:19.081Z,17.85
2023-06-09T15:40:44.125Z,18.58
2023-06-09T15:46:06.369Z,16.21
2023-06-09T15:51:30.445Z,18.60
2023-06-09T15:56:52.932Z,18.60
2023-06-09T16:02:18.115Z,17.40
2023-06-09T16:07:42.951Z,16.23
2023-06-09T16:13:06.909Z,16.47
2023-06-09T16:18:29.168Z,15.76
2023-06-09T16:23:51.377Z,15.28
2023-06-09T16:29:13.770Z,15.37
2023-06-09T16:34:36.025Z,15.26
2023-06-09T16:40:01.059Z,15.34
2023-06-09T16:45:24.377Z,14.82
2023-06-09T16:50:46.912Z,14.41
2023-06-09T16:56:09.195Z,14.21
2023-06-09T17:01:34.725Z,13.88
2023-06-09T17:06:57.587Z,13.96
2023-06-09T17:12:23.038Z,13.57
2023-06-09T17:17:47.954Z,13.57
2023-06-09T17:23:13.195Z,13.41
2023-06-09T17:28:37.331Z,13.28
2023-06-09T17:34:00.109Z,13.16
2023-06-09T17:39:22.959Z,12.99
2023-06-09T17:44:45.500Z,12.87
2023-06-09T17:50:08.255Z,12.75
2023-06-09T17:55:30.466Z,12.41
2023-06-09T18:00:53.087Z,12.32
2023-06-09T18:06:14.950Z,12.03
2023-06-09T18:11:39.949Z,11.45
2023-06-09T18:17:05.242Z,11.65
2023-06-09T18:22:27.548Z,11.53
2023-06-09T18:27:49.478Z,11.63
2023-06-09T18:33:53.467Z,10.87
2023-06-09T18:39:15.667Z,10.97
2023-06-09T18:44:37.811Z,10.58
2023-06-09T18:50:00.183Z,10.47
2023-06-09T18:55:22.549Z,10.42
2023-06-09T19:00:45.207Z,9.96
2023-06-09T19:06:07.546Z,9.78
2023-06-09T19:11:29.659Z,9.23
2023-06-09T19:16:51.651Z,9.25
2023-06-09T19:22:13.661Z,9.04
2023-06-09T19:27:35.521Z,8.85
2023-06-09T19:32:57.999Z,8.55
2023-06-09T19:38:20.517Z,8.49
2023-06-09T19:43:42.761Z,8.47
2023-06-09T19:49:06.817Z,8.47
2023-06-09T19:54:29.069Z,8.21
2023-06-09T19:59:51.591Z,7.85
2023-06-09T20:05:15.035Z,7.87
2023-06-09T20:10:36.990Z,7.84
2023-06-09T20:16:00.991Z,7.78
2023-06-09T20:21:24.607Z,7.47
2023-06-09T20:26:47.235Z,7.43
2023-06-09T20:32:09.698Z,7.46
2023-06-09T20:37:31.614Z,7.21
2023-06-09T20:42:56.980Z,7.27
2023-06-09T20:48:19.884Z,7.01
2023-06-09T20:53:42.880Z,6.91
2023-06-09T20:59:05.763Z,6.41
2023-06-09T21:04:32.124Z,6.78
2023-06-09T21:09:54.062Z,6.75
2023-06-09T21:15:18.691Z,6.65
2023-06-09T21:20:41.300Z,6.55
2023-06-09T21:26:03.819Z,6.54
2023-06-09T21:31:26.102Z,6.53
2023-06-09T21:36:48.566Z,6.68
2023-06-09T21:42:14.340Z,6.67
2023-06-09T21:47:36.762Z,6.63
2023-06-09T21:53:01.243Z,7.13
2023-06-09T21:58:23.411Z,7.40
2023-06-09T22:03:46.312Z,7.41
2023-06-09T22:09:08.550Z,7.13
2023-06-09T22:14:30.668Z,7.69
2023-06-09T22:19:52.631Z,7.57
2023-06-09T22:25:14.662Z,7.08
2023-06-09T22:30:36.675Z,6.68
2023-06-09T22:35:59.548Z,6.57
2023-06-09T22:41:22.016Z,6.60
2023-06-09T22:46:44.829Z,6.67
2023-06-09T22:52:07.026Z,6.36
2023-06-09T22:57:29.228Z,6.15
2023-06-09T23:02:51.876Z,6.06
2023-06-09T23:08:15.014Z,5.89
2023-06-09T23:13:39.684Z,5.94
2023-06-09T23:19:02.608Z,5.61
2023-06-09T23:24:26.351Z,5.35
2023-06-09T23:29:49.798Z,5.75
2023-06-09T23:35:13.600Z,5.18
2023-06-09T23:40:36.146Z,5.69
2023-06-09T23:45:58.972Z,5.22
2023-06-09T23:51:22.340Z,5.13
2023-06-09T23:56:46.385Z,5.15
